sensor_id;sensor_type;location;lat;lon;timestamp;pressure;altitude;pressure_sealevel;temperature;humidity
81025;BME280;70500;50.292;6.666;2023-06-22T00:01:27;96609.09;;;26.77;51.61
81025;BME280;70500;50.292;6.666;2023-06-22T00:03:56;96610.56;;;26.78;51.72
81025;BME280;70500;50.292;6.666;2023-06-22T00:06:26;96617.38;;;26.77;51.75
81025;BME280;70500;50.292;6.666;2023-06-22T00:08:55;96623.63;;;26.77;51.81
81025;BME280;70500;50.292;6.666;2023-06-22T00:11:24;96630.47;;;26.77;51.90
81025;BME280;70500;50.292;6.666;2023-06-22T00:13:54;96641.50;;;26.77;51.93
81025;BME280;70500;50.292;6.666;2023-06-22T00:16:23;96640.00;;;26.75;51.50
81025;BME280;70500;50.292;6.666;2023-06-22T00:18:52;96640.00;;;26.75;52.09
81025;BME280;70500;50.292;6.666;2023-06-22T00:21:21;96649.03;;;26.76;52.07
81025;BME280;70500;50.292;6.666;2023-06-22T00:23:51;96639.25;;;26.75;51.81
81025;BME280;70500;50.292;6.666;2023-06-22T00:26:20;96638.53;;;26.74;51.98
81025;BME280;70500;50.292;6.666;2023-06-22T00:28:49;96633.00;;;26.74;51.94
81025;BME280;70500;50.292;6.666;2023-06-22T00:31:19;96630.75;;;26.73;51.82
81025;BME280;70500;50.292;6.666;2023-06-22T00:33:48;96629.50;;;26.74;51.88
81025;BME280;70500;50.292;6.666;2023-06-22T00:36:18;96627.25;;;26.72;52.17
81025;BME280;70500;50.292;6.666;2023-06-22T00:38:47;96644.56;;;26.73;52.12
81025;BME280;70500;50.292;6.666;2023-06-22T00:41:19;96635.53;;;26.72;51.73
81025;BME280;70500;50.292;6.666;2023-06-22T00:43:48;96630.00;;;26.72;51.83
81025;BME280;70500;50.292;6.666;2023-06-22T00:46:17;96631.28;;;26.71;52.35
81025;BME280;70500;50.292;6.666;2023-06-22T00:48:47;96626.50;;;26.72;52.16
81025;BME280;70500;50.292;6.666;2023-06-22T00:51:16;96616.72;;;26.71;52.38
81025;BME280;70500;50.292;6.666;2023-06-22T00:53:45;96623.50;;;26.70;52.04
81025;BME280;70500;50.292;6.666;2023-06-22T00:56:16;96616.50;;;26.69;52.09
81025;BME280;70500;50.292;6.666;2023-06-22T00:58:50;96612.25;;;26.68;52.37
81025;BME280;70500;50.292;6.666;2023-06-22T01:01:20;96612.25;;;26.68;52.09
81025;BME280;70500;50.292;6.666;2023-06-22T01:03:51;96605.97;;;26.67;52.19
81025;BME280;70500;50.292;6.666;2023-06-22T01:06:27;96614.78;;;26.66;52.21
81025;BME280;70500;50.292;6.666;2023-06-22T01:09:06;96613.50;;;26.67;52.05
81025;BME280;70500;50.292;6.666;2023-06-22T01:11:42;96597.47;;;26.65;52.38
81025;BME280;70500;50.292;6.666;2023-06-22T01:14:20;96591.94;;;26.65;52.17
81025;BME280;70500;50.292;6.666;2023-06-22T01:16:54;96589.19;;;26.65;52.47
81025;BME280;70500;50.292;6.666;2023-06-22T01:19:37;96588.22;;;26.63;52.01
81025;BME280;70500;50.292;6.666;2023-06-22T01:22:12;96586.94;;;26.64;52.29
81025;BME280;70500;50.292;6.666;2023-06-22T01:24:55;96595.75;;;26.62;52.51
81025;BME280;70500;50.292;6.666;2023-06-22T01:27:33;96597.03;;;26.61;52.15
81025;BME280;70500;50.292;6.666;2023-06-22T01:30:11;96592.03;;;26.60;52.00
81025;BME280;70500;50.292;6.666;2023-06-22T01:32:44;96598.28;;;26.60;52.51
81025;BME280;70500;50.292;6.666;2023-06-22T01:35:15;96599.56;;;26.59;52.50
81025;BME280;70500;50.292;6.666;2023-06-22T01:37:46;96602.31;;;26.59;52.41
81025;BME280;70500;50.292;6.666;2023-06-22T01:40:16;96615.38;;;26.59;52.21
81025;BME280;70500;50.292;6.666;2023-06-22T01:42:48;96609.84;;;26.59;52.38
81025;BME280;70500;50.292;6.666;2023-06-22T01:45:21;96601.38;;;26.57;52.21
81025;BME280;70500;50.292;6.666;2023-06-22T01:47:51;96612.41;;;26.57;52.71
81025;BME280;70500;50.292;6.666;2023-06-22T01:50:21;96619.44;;;26.58;52.18
81025;BME280;70500;50.292;6.666;2023-06-22T01:52:50;96620.69;;;26.57;52.23
81025;BME280;70500;50.292;6.666;2023-06-22T01:55:19;96621.97;;;26.56;52.28
81025;BME280;70500;50.292;6.666;2023-06-22T01:57:49;96630.03;;;26.54;52.58
81025;BME280;70500;50.292;6.666;2023-06-22T02:00:21;96628.75;;;26.55;52.02
81025;BME280;70500;50.292;6.666;2023-06-22T02:02:59;96627.28;;;26.54;52.09
81025;BME280;70500;50.292;6.666;2023-06-22T02:05:35;96621.53;;;26.52;52.16
81025;BME280;70500;50.292;6.666;2023-06-22T02:08:09;96616.00;;;26.52;52.30
81025;BME280;70500;50.292;6.666;2023-06-22T02:10:41;96618.75;;;26.52;52.18
81025;BME280;70500;50.292;6.666;2023-06-22T02:13:13;96596.97;;;26.48;52.68
81025;BME280;70500;50.292;6.666;2023-06-22T02:15:45;96595.19;;;26.51;52.67
81025;BME280;70500;50.292;6.666;2023-06-22T02:18:15;96598.69;;;26.51;52.62
81025;BME280;70500;50.292;6.666;2023-06-22T02:20:44;96605.03;;;26.46;52.25
81025;BME280;70500;50.292;6.666;2023-06-22T02:23:13;96607.78;;;26.46;52.39
81025;BME280;70500;50.292;6.666;2023-06-22T02:25:42;96614.81;;;26.47;52.65
81025;BME280;70500;50.292;6.666;2023-06-22T02:28:12;96615.31;;;26.46;52.91
81025;BME280;70500;50.292;6.666;2023-06-22T02:30:41;96602.03;;;26.44;52.78
81025;BME280;70500;50.292;6.666;2023-06-22T02:33:12;96599.81;;;26.43;52.42
81025;BME280;70500;50.292;6.666;2023-06-22T02:35:41;96584.50;;;26.41;52.86
81025;BME280;70500;50.292;6.666;2023-06-22T02:38:14;96576.97;;;26.42;52.45
81025;BME280;70500;50.292;6.666;2023-06-22T02:40:45;96566.47;;;26.40;52.54
81025;BME280;70500;50.292;6.666;2023-06-22T02:43:14;96546.19;;;26.38;52.56
81025;BME280;70500;50.292;6.666;2023-06-22T02:45:44;96537.91;;;26.38;52.71
81025;BME280;70500;50.292;6.666;2023-06-22T02:48:15;96527.63;;;26.38;52.67
81025;BME280;70500;50.292;6.666;2023-06-22T02:50:45;96522.09;;;26.38;52.68
81025;BME280;70500;50.292;6.666;2023-06-22T02:53:14;96513.06;;;26.38;52.66
81025;BME280;70500;50.292;6.666;2023-06-22T02:55:46;96507.34;;;26.36;52.66
81025;BME280;70500;50.292;6.666;2023-06-22T02:58:16;96510.09;;;26.36;52.64
81025;BME280;70500;50.292;6.666;2023-06-22T03:00:45;96517.09;;;26.37;52.81
81025;BME280;70500;50.292;6.666;2023-06-22T03:03:15;96516.34;;;26.36;52.64
81025;BME280;70500;50.292;6.666;2023-06-22T03:05:45;96514.88;;;26.35;52.55
81025;BME280;70500;50.292;6.666;2023-06-22T03:08:14;96510.63;;;26.34;52.63
81025;BME280;70500;50.292;6.666;2023-06-22T03:10:43;96500.09;;;26.33;52.88
81025;BME280;70500;50.292;6.666;2023-06-22T03:13:12;96500.09;;;26.33;52.76
81025;BME280;70500;50.292;6.666;2023-06-22T03:15:41;96493.84;;;26.32;52.69
81025;BME280;70500;50.292;6.666;2023-06-22T03:18:11;96487.56;;;26.32;52.52
81025;BME280;70500;50.292;6.666;2023-06-22T03:20:41;96490.84;;;26.30;52.62
81025;BME280;70500;50.292;6.666;2023-06-22T03:23:10;96489.38;;;26.29;52.68
81025;BME280;70500;50.292;6.666;2023-06-22T03:25:41;96494.88;;;26.29;52.71
81025;BME280;70500;50.292;6.666;2023-06-22T03:28:12;96488.38;;;26.27;52.64
81025;BME280;70500;50.292;6.666;2023-06-22T03:30:41;96489.88;;;26.28;52.60
81025;BME280;70500;50.292;6.666;2023-06-22T03:33:10;96487.13;;;26.28;53.13
81025;BME280;70500;50.292;6.666;2023-06-22T03:35:41;96485.84;;;26.29;52.74
81025;BME280;70500;50.292;6.666;2023-06-22T03:38:11;96483.41;;;26.25;52.85
81025;BME280;70500;50.292;6.666;2023-06-22T03:40:40;96486.16;;;26.25;52.86
81025;BME280;70500;50.292;6.666;2023-06-22T03:43:10;96482.13;;;26.26;52.94
81025;BME280;70500;50.292;6.666;2023-06-22T03:45:39;96484.66;;;26.24;52.71
81025;BME280;70500;50.292;6.666;2023-06-22T03:48:08;96485.41;;;26.25;52.60
81025;BME280;70500;50.292;6.666;2023-06-22T03:50:38;96480.63;;;26.25;52.62
81025;BME280;70500;50.292;6.666;2023-06-22T03:53:08;96485.69;;;26.21;52.20
81025;BME280;70500;50.292;6.666;2023-06-22T03:55:48;96480.69;;;26.20;51.99
81025;BME280;70500;50.292;6.666;2023-06-22T03:58:18;96478.47;;;26.18;51.66
81025;BME280;70500;50.292;6.666;2023-06-22T04:00:49;96473.47;;;26.17;51.88
81025;BME280;70500;50.292;6.666;2023-06-22T04:03:19;96477.28;;;26.14;51.65
81025;BME280;70500;50.292;6.666;2023-06-22T04:05:49;96486.09;;;26.12;51.51
81025;BME280;70500;50.292;6.666;2023-06-22T04:08:20;96490.09;;;26.11;51.62
81025;BME280;70500;50.292;6.666;2023-06-22T04:10:49;96479.06;;;26.11;51.70
81025;BME280;70500;50.292;6.666;2023-06-22T04:13:18;96492.88;;;26.11;51.48
81025;BME280;70500;50.292;6.666;2023-06-22T04:15:47;96482.34;;;26.10;51.33
81025;BME280;70500;50.292;6.666;2023-06-22T04:18:16;96485.41;;;26.06;51.59
81025;BME280;70500;50.292;6.666;2023-06-22T04:20:45;96486.91;;;26.07;51.55
81025;BME280;70500;50.292;6.666;2023-06-22T04:23:15;96485.94;;;26.04;51.61
81025;BME280;70500;50.292;6.666;2023-06-22T04:25:45;96490.19;;;26.05;51.46
81025;BME280;70500;50.292;6.666;2023-06-22T04:28:14;96495.69;;;26.05;51.44
81025;BME280;70500;50.292;6.666;2023-06-22T04:30:44;96494.44;;;26.06;51.28
81025;BME280;70500;50.292;6.666;2023-06-22T04:33:15;96486.69;;;26.05;51.40
81025;BME280;70500;50.292;6.666;2023-06-22T04:35:45;96487.94;;;26.04;51.49
81025;BME280;70500;50.292;6.666;2023-06-22T04:38:14;96476.16;;;26.03;51.40
81025;BME280;70500;50.292;6.666;2023-06-22T04:40:43;96487.41;;;26.05;51.33
81025;BME280;70500;50.292;6.666;2023-06-22T04:43:14;96480.41;;;26.04;51.35
81025;BME280;70500;50.292;6.666;2023-06-22T04:45:43;96474.66;;;26.02;51.66
81025;BME280;70500;50.292;6.666;2023-06-22T04:48:12;96474.66;;;26.02;51.48
81025;BME280;70500;50.292;6.666;2023-06-22T04:50:44;96472.44;;;26.01;51.80
81025;BME280;70500;50.292;6.666;2023-06-22T04:53:13;96475.19;;;26.01;51.38
81025;BME280;70500;50.292;6.666;2023-06-22T04:55:42;96475.94;;;26.01;51.53
81025;BME280;70500;50.292;6.666;2023-06-22T04:58:14;96478.19;;;26.03;51.59
81025;BME280;70500;50.292;6.666;2023-06-22T05:00:43;96477.94;;;26.01;51.42
81025;BME280;70500;50.292;6.666;2023-06-22T05:03:14;96471.50;;;25.98;51.63
81025;BME280;70500;50.292;6.666;2023-06-22T05:05:48;96474.25;;;25.98;51.49
81025;BME280;70500;50.292;6.666;2023-06-22T05:08:17;96472.25;;;25.99;51.82
81025;BME280;70500;50.292;6.666;2023-06-22T05:10:46;96480.72;;;26.01;51.44
81025;BME280;70500;50.292;6.666;2023-06-22T05:13:23;96473.50;;;25.98;51.51
81025;BME280;70500;50.292;6.666;2023-06-22T05:15:54;96477.75;;;25.99;51.35
81025;BME280;70500;50.292;6.666;2023-06-22T05:18:30;96467.25;;;25.97;51.46
81025;BME280;70500;50.292;6.666;2023-06-22T05:21:00;96473.28;;;25.96;51.47
81025;BME280;70500;50.292;6.666;2023-06-22T05:23:29;96460.22;;;25.96;51.54
81025;BME280;70500;50.292;6.666;2023-06-22T05:25:58;96468.28;;;25.94;51.68
81025;BME280;70500;50.292;6.666;2023-06-22T05:28:28;96462.03;;;25.94;51.67
81025;BME280;70500;50.292;6.666;2023-06-22T05:30:58;96464.78;;;25.94;51.44
81025;BME280;70500;50.292;6.666;2023-06-22T05:33:27;96475.28;;;25.95;51.73
81025;BME280;70500;50.292;6.666;2023-06-22T05:35:56;96471.78;;;25.95;51.54
81025;BME280;70500;50.292;6.666;2023-06-22T05:38:25;96478.06;;;25.95;51.40
81025;BME280;70500;50.292;6.666;2023-06-22T05:40:54;96482.31;;;25.96;51.48
81025;BME280;70500;50.292;6.666;2023-06-22T05:43:24;96477.06;;;25.93;51.53
81025;BME280;70500;50.292;6.666;2023-06-22T05:45:54;96479.09;;;25.92;51.08
81025;BME280;70500;50.292;6.666;2023-06-22T05:48:23;96481.31;;;25.94;51.55
81025;BME280;70500;50.292;6.666;2023-06-22T05:50:53;96493.41;;;25.91;52.04
81025;BME280;70500;50.292;6.666;2023-06-22T05:53:22;96501.69;;;25.91;51.58
81025;BME280;70500;50.292;6.666;2023-06-22T05:55:51;96508.16;;;25.93;51.49
81025;BME280;70500;50.292;6.666;2023-06-22T05:58:20;96510.19;;;25.93;51.77
81025;BME280;70500;50.292;6.666;2023-06-22T06:00:50;96510.69;;;25.91;51.53
81025;BME280;70500;50.292;6.666;2023-06-22T06:03:20;96513.97;;;25.90;51.76
81025;BME280;70500;50.292;6.666;2023-06-22T06:05:49;96514.72;;;25.90;51.56
81025;BME280;70500;50.292;6.666;2023-06-22T06:08:18;96515.47;;;25.91;51.47
81025;BME280;70500;50.292;6.666;2023-06-22T06:10:48;96527.00;;;25.89;51.69
81025;BME280;70500;50.292;6.666;2023-06-22T06:13:17;96520.22;;;25.90;51.68
81025;BME280;70500;50.292;6.666;2023-06-22T06:15:46;96505.19;;;25.91;51.69
81025;BME280;70500;50.292;6.666;2023-06-22T06:18:15;96504.94;;;25.89;51.62
81025;BME280;70500;50.292;6.666;2023-06-22T06:20:46;96500.69;;;25.88;51.55
81025;BME280;70500;50.292;6.666;2023-06-22T06:23:15;96503.97;;;25.87;51.55
81025;BME280;70500;50.292;6.666;2023-06-22T06:25:44;96508.22;;;25.88;51.61
81025;BME280;70500;50.292;6.666;2023-06-22T06:28:13;96502.72;;;25.88;51.55
81025;BME280;70500;50.292;6.666;2023-06-22T06:30:42;96511.00;;;25.88;51.73
81025;BME280;70500;50.292;6.666;2023-06-22T06:33:11;96498.47;;;25.87;51.53
81025;BME280;70500;50.292;6.666;2023-06-22T06:35:41;96483.94;;;25.86;51.54
81025;BME280;70500;50.292;6.666;2023-06-22T06:38:11;96476.91;;;25.85;51.68
81025;BME280;70500;50.292;6.666;2023-06-22T06:40:40;96486.69;;;25.86;51.63
81025;BME280;70500;50.292;6.666;2023-06-22T06:43:09;96479.91;;;25.87;51.61
81025;BME280;70500;50.292;6.666;2023-06-22T06:45:38;96483.19;;;25.86;51.46
81025;BME280;70500;50.292;6.666;2023-06-22T06:48:08;96477.16;;;25.87;51.51
81025;BME280;70500;50.292;6.666;2023-06-22T06:50:37;96477.16;;;25.87;51.44
81025;BME280;70500;50.292;6.666;2023-06-22T06:53:06;96473.13;;;25.88;51.65
81025;BME280;70500;50.292;6.666;2023-06-22T06:55:36;96480.66;;;25.88;51.66
81025;BME280;70500;50.292;6.666;2023-06-22T06:58:06;96475.88;;;25.88;51.44
81025;BME280;70500;50.292;6.666;2023-06-22T07:00:37;96464.78;;;25.94;51.32
81025;BME280;70500;50.292;6.666;2023-06-22T07:03:06;96453.53;;;25.92;51.34
81025;BME280;70500;50.292;6.666;2023-06-22T07:05:36;96453.00;;;25.93;51.13
81025;BME280;70500;50.292;6.666;2023-06-22T07:08:05;96452.25;;;25.93;51.30
81025;BME280;70500;50.292;6.666;2023-06-22T07:10:34;96453.00;;;25.93;51.26
81025;BME280;70500;50.292;6.666;2023-06-22T07:13:04;96452.25;;;25.93;51.33
81025;BME280;70500;50.292;6.666;2023-06-22T07:15:33;96446.75;;;25.93;51.28
81025;BME280;70500;50.292;6.666;2023-06-22T07:18:03;96444.72;;;25.93;51.18
81025;BME280;70500;50.292;6.666;2023-06-22T07:20:32;96442.94;;;25.96;51.16
81025;BME280;70500;50.292;6.666;2023-06-22T07:23:02;96439.44;;;25.95;51.24
81025;BME280;70500;50.292;6.666;2023-06-22T07:25:31;96439.66;;;25.97;51.33
81025;BME280;70500;50.292;6.666;2023-06-22T07:28:02;96442.19;;;25.95;51.39
81025;BME280;70500;50.292;6.666;2023-06-22T07:30:33;96435.41;;;25.96;51.49
81025;BME280;70500;50.292;6.666;2023-06-22T07:33:02;96436.16;;;25.97;51.32
81025;BME280;70500;50.292;6.666;2023-06-22T07:35:34;96427.38;;;25.98;51.26
81025;BME280;70500;50.292;6.666;2023-06-22T07:38:03;96419.84;;;25.99;51.19
81025;BME280;70500;50.292;6.666;2023-06-22T07:40:33;96411.75;;;26.01;51.18
81025;BME280;70500;50.292;6.666;2023-06-22T07:43:03;96416.75;;;26.02;51.29
81025;BME280;70500;50.292;6.666;2023-06-22T07:45:33;96403.69;;;26.03;51.19
81025;BME280;70500;50.292;6.666;2023-06-22T07:48:03;96420.47;;;26.05;51.15
81025;BME280;70500;50.292;6.666;2023-06-22T07:50:33;96412.41;;;26.07;51.15
81025;BME280;70500;50.292;6.666;2023-06-22T07:53:02;96400.63;;;26.06;51.07
81025;BME280;70500;50.292;6.666;2023-06-22T07:55:31;96382.06;;;26.07;51.38
81025;BME280;70500;50.292;6.666;2023-06-22T07:58:00;96374.03;;;26.09;51.11
81025;BME280;70500;50.292;6.666;2023-06-22T08:00:29;96364.47;;;26.10;51.02
81025;BME280;70500;50.292;6.666;2023-06-22T08:03:00;96365.22;;;26.11;50.76
81025;BME280;70500;50.292;6.666;2023-06-22T08:05:31;96357.69;;;26.11;51.20
81025;BME280;70500;50.292;6.666;2023-06-22T08:08:00;96360.66;;;26.13;51.05
81025;BME280;70500;50.292;6.666;2023-06-22T08:10:29;96353.88;;;26.14;51.19
81025;BME280;70500;50.292;6.666;2023-06-22T08:12:59;96348.38;;;26.14;51.28
81025;BME280;70500;50.292;6.666;2023-06-22T08:15:28;96332.78;;;26.17;50.97
81025;BME280;70500;50.292;6.666;2023-06-22T08:17:57;96333.53;;;26.17;51.08
81025;BME280;70500;50.292;6.666;2023-06-22T08:20:29;96337.78;;;26.18;50.92
81025;BME280;70500;50.292;6.666;2023-06-22T08:22:58;96334.44;;;26.20;51.09
81025;BME280;70500;50.292;6.666;2023-06-22T08:25:33;96329.16;;;26.22;50.90
81025;BME280;70500;50.292;6.666;2023-06-22T08:28:03;96325.16;;;26.23;50.97
81025;BME280;70500;50.292;6.666;2023-06-22T08:30:33;96327.38;;;26.24;50.85
81025;BME280;70500;50.292;6.666;2023-06-22T08:33:02;96317.84;;;26.25;50.90
81025;BME280;70500;50.292;6.666;2023-06-22T08:35:33;96314.56;;;26.27;51.32
81025;BME280;70500;50.292;6.666;2023-06-22T08:38:02;96307.75;;;26.28;50.85
81025;BME280;70500;50.292;6.666;2023-06-22T08:40:31;96301.72;;;26.29;50.61
81025;BME280;70500;50.292;6.666;2023-06-22T08:43:00;96296.19;;;26.29;50.97
81025;BME280;70500;50.292;6.666;2023-06-22T08:45:29;96298.44;;;26.31;50.78
81025;BME280;70500;50.292;6.666;2023-06-22T08:47:59;96294.94;;;26.30;50.84
81025;BME280;70500;50.292;6.666;2023-06-22T08:50:28;96286.66;;;26.30;50.64
81025;BME280;70500;50.292;6.666;2023-06-22T08:52:59;96274.13;;;26.29;50.63
81025;BME280;70500;50.292;6.666;2023-06-22T08:55:29;96275.63;;;26.30;51.02
81025;BME280;70500;50.292;6.666;2023-06-22T08:57:58;96270.09;;;26.30;50.79
81025;BME280;70500;50.292;6.666;2023-06-22T09:00:27;96268.59;;;26.29;51.06
81025;BME280;70500;50.292;6.666;2023-06-22T09:03:00;96272.09;;;26.30;50.83
81025;BME280;70500;50.292;6.666;2023-06-22T09:05:30;96274.13;;;26.29;50.63
81025;BME280;70500;50.292;6.666;2023-06-22T09:08:01;96287.19;;;26.29;51.30
81025;BME280;70500;50.292;6.666;2023-06-22T09:10:30;96300.22;;;26.28;50.62
81025;BME280;70500;50.292;6.666;2023-06-22T09:13:00;96323.03;;;26.29;50.96
81025;BME280;70500;50.292;6.666;2023-06-22T09:15:29;96330.59;;;26.28;50.90
81025;BME280;70500;50.292;6.666;2023-06-22T09:17:59;96329.84;;;26.28;50.93
81025;BME280;70500;50.292;6.666;2023-06-22T09:20:28;96308.28;;;26.26;50.82
81025;BME280;70500;50.292;6.666;2023-06-22T09:22:58;96313.81;;;26.26;50.82
81025;BME280;70500;50.292;6.666;2023-06-22T09:25:28;96304.03;;;26.25;50.84
81025;BME280;70500;50.292;6.666;2023-06-22T09:27:58;96316.34;;;26.24;50.87
81025;BME280;70500;50.292;6.666;2023-06-22T09:30:27;96336.41;;;26.25;50.79
81025;BME280;70500;50.292;6.666;2023-06-22T09:32:57;96354.97;;;26.24;50.87
81025;BME280;70500;50.292;6.666;2023-06-22T09:35:26;96380.56;;;26.25;51.08
81025;BME280;70500;50.292;6.666;2023-06-22T09:37:55;96370.78;;;26.24;50.92
81025;BME280;70500;50.292;6.666;2023-06-22T09:40:24;96359.00;;;26.23;50.74
81025;BME280;70500;50.292;6.666;2023-06-22T09:42:55;96374.06;;;26.22;50.71
81025;BME280;70500;50.292;6.666;2023-06-22T09:45:24;96386.34;;;26.21;50.87
81025;BME280;70500;50.292;6.666;2023-06-22T09:47:53;96376.06;;;26.22;50.98
81025;BME280;70500;50.292;6.666;2023-06-22T09:50:23;96424.97;;;26.21;50.91
81025;BME280;70500;50.292;6.666;2023-06-22T09:52:52;96499.47;;;26.21;50.81
81025;BME280;70500;50.292;6.666;2023-06-22T09:55:23;96536.09;;;26.22;50.97
81025;BME280;70500;50.292;6.666;2023-06-22T09:57:52;96509.03;;;26.20;50.99
81025;BME280;70500;50.292;6.666;2023-06-22T10:00:24;96479.97;;;26.19;50.96
81025;BME280;70500;50.292;6.666;2023-06-22T10:02:54;96439.63;;;26.16;50.98
81025;BME280;70500;50.292;6.666;2023-06-22T10:05:27;96432.84;;;26.17;50.82
81025;BME280;70500;50.292;6.666;2023-06-22T10:07:57;96433.38;;;26.16;51.02
81025;BME280;70500;50.292;6.666;2023-06-22T10:10:26;96421.59;;;26.15;50.96
81025;BME280;70500;50.292;6.666;2023-06-22T10:12:57;96407.78;;;26.15;50.94
81025;BME280;70500;50.292;6.666;2023-06-22T10:15:27;96415.31;;;26.15;51.11
81025;BME280;70500;50.292;6.666;2023-06-22T10:17:57;96439.41;;;26.14;50.91
81025;BME280;70500;50.292;6.666;2023-06-22T10:20:26;96441.41;;;26.14;51.07
81025;BME280;70500;50.292;6.666;2023-06-22T10:22:56;96422.09;;;26.14;51.09
81025;BME280;70500;50.292;6.666;2023-06-22T10:25:27;96400.56;;;26.12;51.08
81025;BME280;70500;50.292;6.666;2023-06-22T10:27:56;96410.31;;;26.13;51.12
81025;BME280;70500;50.292;6.666;2023-06-22T10:30:27;96402.06;;;26.13;51.11
81025;BME280;70500;50.292;6.666;2023-06-22T10:32:56;96400.56;;;26.12;51.10
81025;BME280;70500;50.292;6.666;2023-06-22T10:35:26;96399.06;;;26.11;51.19
81025;BME280;70500;50.292;6.666;2023-06-22T10:37:55;96358.44;;;26.12;50.98
81025;BME280;70500;50.292;6.666;2023-06-22T10:40:25;96329.38;;;26.11;51.11
81025;BME280;70500;50.292;6.666;2023-06-22T10:42:54;96301.03;;;26.10;51.00
81025;BME280;70500;50.292;6.666;2023-06-22T10:45:24;96298.28;;;26.10;50.86
81025;BME280;70500;50.292;6.666;2023-06-22T10:47:54;96287.97;;;26.11;51.04
81025;BME280;70500;50.292;6.666;2023-06-22T10:50:24;96292.97;;;26.12;50.89
81025;BME280;70500;50.292;6.666;2023-06-22T10:52:54;96285.44;;;26.13;50.88
81025;BME280;70500;50.292;6.666;2023-06-22T10:55:27;96297.97;;;26.14;50.97
81025;BME280;70500;50.292;6.666;2023-06-22T10:58:13;96296.69;;;26.15;50.86
81025;BME280;70500;50.292;6.666;2023-06-22T11:00:43;96296.69;;;26.15;50.89
81025;BME280;70500;50.292;6.666;2023-06-22T11:03:13;96286.41;;;26.15;50.85
81025;BME280;70500;50.292;6.666;2023-06-22T11:05:42;96287.88;;;26.16;50.71
81025;BME280;70500;50.292;6.666;2023-06-22T11:08:13;96289.38;;;26.17;50.87
81025;BME280;70500;50.292;6.666;2023-06-22T11:10:43;96279.63;;;26.16;50.98
81025;BME280;70500;50.292;6.666;2023-06-22T11:13:12;96272.09;;;26.17;50.97
81025;BME280;70500;50.292;6.666;2023-06-22T11:15:42;96277.59;;;26.17;50.82
81025;BME280;70500;50.292;6.666;2023-06-22T11:18:12;96277.59;;;26.17;50.98
81025;BME280;70500;50.292;6.666;2023-06-22T11:20:42;96266.56;;;26.17;50.98
81025;BME280;70500;50.292;6.666;2023-06-22T11:23:11;96270.06;;;26.17;51.06
81025;BME280;70500;50.292;6.666;2023-06-22T11:25:40;96270.06;;;26.17;50.58
81025;BME280;70500;50.292;6.666;2023-06-22T11:28:10;96260.31;;;26.16;50.89
81025;BME280;70500;50.292;6.666;2023-06-22T11:30:39;96243.75;;;26.16;50.64
81025;BME280;70500;50.292;6.666;2023-06-22T11:33:08;96229.22;;;26.16;50.89
81025;BME280;70500;50.292;6.666;2023-06-22T11:35:39;96221.69;;;26.16;51.04
81025;BME280;70500;50.292;6.666;2023-06-22T11:38:10;96218.91;;;26.16;50.96
81025;BME280;70500;50.292;6.666;2023-06-22T11:40:40;96225.94;;;26.17;50.78
81025;BME280;70500;50.292;6.666;2023-06-22T11:43:09;96227.41;;;26.18;50.94
81025;BME280;70500;50.292;6.666;2023-06-22T11:45:38;96214.38;;;26.19;51.08
81025;BME280;70500;50.292;6.666;2023-06-22T11:48:07;96198.56;;;26.19;50.73
81025;BME280;70500;50.292;6.666;2023-06-22T11:50:37;96206.81;;;26.19;50.82
81025;BME280;70500;50.292;6.666;2023-06-22T11:53:07;96193.75;;;26.20;50.72
81025;BME280;70500;50.292;6.666;2023-06-22T11:55:36;96202.78;;;26.20;51.02
81025;BME280;70500;50.292;6.666;2023-06-22T11:58:06;96202.78;;;26.20;50.84
81025;BME280;70500;50.292;6.666;2023-06-22T12:00:35;96190.47;;;26.21;50.86
81025;BME280;70500;50.292;6.666;2023-06-22T12:03:18;96187.69;;;26.21;50.78
81025;BME280;70500;50.292;6.666;2023-06-22T12:05:50;96185.69;;;26.22;51.00
81025;BME280;70500;50.292;6.666;2023-06-22T12:08:24;96167.16;;;26.22;50.88
81025;BME280;70500;50.292;6.666;2023-06-22T12:10:53;96176.16;;;26.23;51.07
81025;BME280;70500;50.292;6.666;2023-06-22T12:13:22;96165.88;;;26.23;51.00
81025;BME280;70500;50.292;6.666;2023-06-22T12:15:52;96159.09;;;26.24;50.98
81025;BME280;70500;50.292;6.666;2023-06-22T12:18:21;96157.59;;;26.23;51.27
81025;BME280;70500;50.292;6.666;2023-06-22T12:20:50;96149.31;;;26.23;51.01
81025;BME280;70500;50.292;6.666;2023-06-22T12:23:22;96150.81;;;26.24;50.90
81025;BME280;70500;50.292;6.666;2023-06-22T12:25:51;96148.78;;;26.25;50.96
81025;BME280;70500;50.292;6.666;2023-06-22T12:28:20;96145.28;;;26.24;50.91
81025;BME280;70500;50.292;6.666;2023-06-22T12:30:51;96143.28;;;26.25;51.00
81025;BME280;70500;50.292;6.666;2023-06-22T12:33:20;96139.25;;;26.26;50.71
81025;BME280;70500;50.292;6.666;2023-06-22T12:35:49;96130.97;;;26.26;50.93
81025;BME280;70500;50.292;6.666;2023-06-22T12:38:18;96132.44;;;26.27;51.23
81025;BME280;70500;50.292;6.666;2023-06-22T12:40:49;96140.72;;;26.27;50.85
81025;BME280;70500;50.292;6.666;2023-06-22T12:43:19;96144.22;;;26.27;50.93
81025;BME280;70500;50.292;6.666;2023-06-22T12:45:48;96145.72;;;26.28;51.23
81025;BME280;70500;50.292;6.666;2023-06-22T12:48:17;96143.69;;;26.29;50.71
81025;BME280;70500;50.292;6.666;2023-06-22T12:50:46;96138.19;;;26.29;50.92
81025;BME280;70500;50.292;6.666;2023-06-22T12:53:16;96143.69;;;26.29;50.94
81025;BME280;70500;50.292;6.666;2023-06-22T12:55:45;96143.69;;;26.29;51.24
81025;BME280;70500;50.292;6.666;2023-06-22T12:58:15;96138.19;;;26.29;50.88
81025;BME280;70500;50.292;6.666;2023-06-22T13:00:44;96132.13;;;26.30;50.75
81025;BME280;70500;50.292;6.666;2023-06-22T13:03:13;96132.13;;;26.30;51.10
81025;BME280;70500;50.292;6.666;2023-06-22T13:05:43;96116.31;;;26.31;50.84
81025;BME280;70500;50.292;6.666;2023-06-22T13:08:13;96110.78;;;26.31;50.78
81025;BME280;70500;50.292;6.666;2023-06-22T13:10:42;96090.19;;;26.32;50.76
81025;BME280;70500;50.292;6.666;2023-06-22T13:13:12;96072.91;;;26.31;50.93
81025;BME280;70500;50.292;6.666;2023-06-22T13:15:43;96079.16;;;26.32;50.92